createdAt,value
2019-04-30T00:03:19.715Z,61.46
2019-04-30T00:13:26.937Z,61.21
2019-04-30T00:18:37.945Z,61.14
2019-04-30T00:23:36.887Z,61.82
2019-04-30T00:28:44.390Z,61.35
2019-04-30T00:33:46.719Z,61.76
2019-04-30T00:38:50.921Z,61.76
2019-04-30T00:43:55.222Z,62.00
2019-04-30T00:49:09.026Z,62.45
2019-04-30T00:54:05.731Z,62.41
2019-04-30T00:59:10.667Z,62.41
2019-04-30T01:04:24.565Z,62.35
2019-04-30T01:09:26.559Z,62.35
2019-04-30T01:14:32.078Z,62.85
2019-04-30T01:19:36.539Z,62.85
2019-04-30T01:24:40.727Z,63.04
2019-04-30T01:29:44.905Z,63.04
2019-04-30T01:34:53.870Z,63.04
2019-04-30T01:39:54.819Z,63.01
2019-04-30T01:44:59.022Z,62.50
2019-04-30T01:50:04.994Z,62.69
2019-04-30T01:55:09.162Z,62.69
2019-04-30T02:00:29.287Z,62.60
2019-04-30T02:05:33.544Z,62.80
2019-04-30T02:10:37.565Z,62.88
2019-04-30T02:15:41.659Z,62.77
2019-04-30T02:20:45.687Z,63.54
2019-04-30T02:25:49.851Z,63.10
2019-04-30T02:30:53.891Z,63.16
2019-04-30T02:36:22.969Z,63.17
2019-04-30T02:41:29.391Z,63.54
2019-04-30T02:46:34.037Z,63.90
2019-04-30T02:51:40.173Z,63.96
2019-04-30T02:56:46.815Z,63.91
2019-04-30T03:01:50.906Z,63.60
2019-04-30T03:06:54.928Z,63.60
2019-04-30T03:12:00.269Z,63.71
2019-04-30T03:17:21.039Z,63.71
2019-04-30T03:22:26.812Z,63.54
2019-04-30T03:27:30.830Z,64.26
2019-04-30T03:32:36.723Z,64.31
2019-04-30T03:37:40.789Z,63.98
2019-04-30T03:42:44.899Z,64.21
2019-04-30T03:47:50.488Z,64.04
2019-04-30T03:52:54.802Z,64.08
2019-04-30T03:58:00.153Z,63.81
2019-04-30T04:03:04.429Z,63.93
2019-04-30T04:08:21.052Z,64.66
2019-04-30T04:13:25.204Z,64.65
2019-04-30T04:18:30.198Z,64.49
2019-04-30T04:23:34.461Z,64.09
2019-04-30T04:28:43.077Z,64.22
2019-04-30T04:33:44.368Z,64.33
2019-04-30T04:38:50.605Z,63.94
2019-04-30T04:43:54.369Z,64.25
2019-04-30T04:48:59.665Z,64.25
2019-04-30T04:54:03.845Z,64.42
2019-04-30T04:59:10.297Z,64.89
2019-04-30T05:04:13.727Z,64.96
2019-04-30T05:09:19.358Z,65.15
2019-04-30T05:14:23.608Z,64.80
2019-04-30T05:19:28.625Z,64.80
2019-04-30T05:24:32.792Z,64.84
2019-04-30T05:29:38.598Z,64.75
2019-04-30T05:34:42.715Z,63.95
2019-04-30T05:39:48.804Z,64.29
2019-04-30T05:44:52.820Z,64.29
2019-04-30T05:49:58.485Z,63.63
2019-04-30T05:55:02.692Z,63.43
2019-04-30T06:00:07.112Z,63.43
2019-04-30T06:05:11.401Z,63.16
2019-04-30T06:10:22.357Z,63.03
2019-04-30T06:15:48.987Z,63.03
2019-04-30T06:20:53.367Z,62.70
2019-04-30T06:26:06.784Z,62.79
2019-04-30T06:31:03.707Z,62.68
2019-04-30T06:36:08.600Z,51.20
2019-04-30T06:41:20.076Z,51.25
2019-04-30T06:46:24.789Z,50.24
2019-04-30T06:51:30.767Z,50.75
2019-04-30T06:56:35.087Z,51.21
2019-04-30T07:01:39.210Z,51.21
2019-04-30T07:06:45.122Z,51.91
2019-04-30T07:11:59.260Z,51.91
2019-04-30T07:17:03.585Z,53.63
2019-04-30T07:22:09.125Z,53.63
2019-04-30T07:27:13.276Z,53.24
2019-04-30T07:32:19.730Z,53.01
2019-04-30T07:37:24.737Z,53.01
2019-04-30T07:42:29.579Z,53.66
2019-04-30T07:47:33.729Z,53.57
2019-04-30T07:52:55.519Z,53.24
2019-04-30T07:57:44.021Z,53.27
2019-04-30T08:02:55.585Z,52.83
2019-04-30T08:08:16.803Z,52.83
2019-04-30T08:13:10.274Z,53.51
2019-04-30T08:18:11.374Z,53.02
2019-04-30T08:23:32.839Z,53.52
2019-04-30T08:28:21.231Z,53.26
2019-04-30T08:33:25.275Z,53.82
2019-04-30T08:38:30.053Z,53.29
2019-04-30T08:43:34.222Z,53.52
2019-04-30T08:48:47.873Z,53.14
2019-04-30T08:53:44.150Z,53.22
2019-04-30T08:58:49.118Z,53.22
2019-04-30T09:03:53.375Z,53.41
2019-04-30T09:09:05.496Z,53.19
2019-04-30T09:14:09.558Z,53.19
2019-04-30T09:19:13.650Z,52.39
2019-04-30T09:24:19.105Z,52.93
2019-04-30T09:29:23.331Z,52.59
2019-04-30T09:34:29.088Z,52.59
2019-04-30T09:39:33.252Z,53.10
2019-04-30T09:44:39.034Z,53.36
2019-04-30T09:49:43.116Z,52.97
2019-04-30T09:54:47.190Z,52.97
2019-04-30T09:59:51.329Z,53.53
2019-04-30T10:04:55.851Z,53.62
2019-04-30T10:10:00.247Z,53.62
2019-04-30T10:15:05.074Z,54.13
2019-04-30T10:20:11.569Z,50.90
2019-04-30T10:25:15.779Z,51.98
2019-04-30T10:30:23.166Z,52.28
2019-04-30T10:35:28.566Z,51.83
2019-04-30T10:40:32.837Z,52.25
2019-04-30T10:45:38.769Z,52.57
2019-04-30T10:50:43.199Z,52.41
2019-04-30T10:55:48.560Z,52.68
2019-04-30T11:00:52.913Z,52.94
2019-04-30T11:05:58.537Z,52.78
2019-04-30T11:11:02.765Z,52.73
2019-04-30T11:16:15.172Z,52.32
2019-04-30T11:21:13.059Z,54.15
2019-04-30T11:26:19.073Z,54.45
2019-04-30T11:31:57.996Z,53.56
2019-04-30T11:37:02.516Z,44.17
2019-04-30T11:42:06.736Z,44.17
2019-04-30T11:47:29.284Z,48.85
2019-04-30T11:52:33.399Z,48.85
2019-04-30T11:57:39.583Z,49.21
2019-04-30T12:02:43.409Z,49.49
2019-04-30T12:08:02.486Z,49.49
2019-04-30T12:13:23.584Z,50.31
2019-04-30T12:18:27.906Z,50.31
2019-04-30T12:23:32.133Z,50.74
2019-04-30T12:28:36.166Z,50.59
2019-04-30T12:33:40.385Z,50.05
2019-04-30T12:38:44.439Z,50.15
2019-04-30T12:43:48.626Z,50.15
2019-04-30T12:49:11.347Z,48.68
2019-04-30T12:54:22.636Z,48.24
2019-04-30T12:59:26.662Z,47.79
2019-04-30T13:04:30.781Z,46.99
2019-04-30T13:09:35.466Z,46.76
2019-04-30T13:14:51.527Z,47.13
2019-04-30T13:19:46.084Z,47.34
2019-04-30T13:25:30.295Z,47.53
2019-04-30T13:30:29.865Z,47.53
2019-04-30T13:35:34.293Z,47.71
2019-04-30T13:40:44.514Z,47.71
2019-04-30T13:45:50.414Z,47.35
2019-04-30T13:50:54.430Z,46.78
2019-04-30T13:55:58.965Z,46.78
2019-04-30T14:01:03.855Z,46.33
2019-04-30T14:06:09.201Z,46.33
2019-04-30T14:11:13.323Z,46.52
2019-04-30T14:16:17.587Z,46.37
2019-04-30T14:21:32.245Z,45.78
2019-04-30T14:26:29.205Z,45.41
2019-04-30T14:31:33.467Z,45.00
2019-04-30T14:36:39.214Z,45.19
2019-04-30T14:41:44.253Z,44.81
2019-04-30T14:47:05.146Z,44.61
2019-04-30T14:52:09.561Z,44.61
2019-04-30T14:57:38.576Z,43.75
2019-04-30T15:02:46.289Z,43.84
2019-04-30T15:07:50.462Z,43.43
2019-04-30T15:12:54.521Z,42.84
2019-04-30T15:17:59.297Z,43.00
2019-04-30T15:23:25.599Z,43.00
2019-04-30T15:28:32.418Z,43.97
2019-04-30T15:34:02.541Z,43.49
2019-04-30T15:39:22.283Z,43.77
2019-04-30T15:44:26.570Z,42.53
2019-04-30T15:49:30.753Z,43.73
2019-04-30T15:54:35.019Z,42.39
2019-04-30T15:59:42.970Z,41.89
2019-04-30T16:04:56.857Z,41.75
2019-04-30T16:10:28.884Z,41.75
2019-04-30T16:15:32.922Z,43.17
2019-04-30T16:20:37.046Z,43.12
2019-04-30T16:25:41.077Z,43.72
2019-04-30T16:30:45.164Z,43.84
2019-04-30T16:35:51.079Z,43.84
2019-04-30T16:40:54.942Z,43.77
2019-04-30T16:45:59.108Z,43.77
2019-04-30T16:51:03.111Z,44.03
2019-04-30T16:56:08.552Z,44.08
2019-04-30T17:01:14.389Z,44.08
2019-04-30T17:06:20.445Z,44.12
2019-04-30T17:11:42.561Z,43.85
2019-04-30T17:16:48.898Z,43.85
2019-04-30T17:21:52.375Z,43.60
2019-04-30T17:26:56.478Z,43.99
2019-04-30T17:32:00.584Z,44.00
2019-04-30T17:37:04.687Z,44.59
2019-04-30T17:42:08.771Z,44.59
2019-04-30T17:47:12.844Z,44.32
2019-04-30T17:52:18.765Z,44.32
2019-04-30T17:57:37.380Z,44.74
2019-04-30T18:02:32.227Z,44.87
2019-04-30T18:07:36.508Z,45.09
2019-04-30T18:12:40.804Z,45.09
2019-04-30T18:17:48.936Z,45.55
2019-04-30T18:23:02.521Z,45.55
2019-04-30T18:28:06.863Z,45.47
2019-04-30T18:33:10.973Z,46.13
2019-04-30T18:38:17.663Z,46.07
2019-04-30T18:43:23.154Z,46.59
2019-04-30T18:48:27.175Z,46.55
2019-04-30T18:53:32.916Z,46.73
2019-04-30T18:58:40.675Z,47.12
2019-04-30T19:03:42.819Z,47.26
2019-04-30T19:09:05.898Z,47.54
2019-04-30T19:14:34.230Z,47.54
2019-04-30T19:19:55.922Z,47.68
2019-04-30T19:25:04.033Z,48.13
2019-04-30T19:30:06.773Z,48.13
2019-04-30T19:35:10.988Z,48.71
2019-04-30T19:40:15.018Z,48.79
2019-04-30T19:45:19.491Z,48.79
2019-04-30T19:50:23.576Z,48.62
2019-04-30T19:55:28.618Z,48.38
2019-04-30T20:00:32.866Z,48.60
2019-04-30T20:05:36.901Z,48.77
2019-04-30T20:10:41.010Z,48.77
2019-04-30T20:15:45.099Z,48.77
2019-04-30T20:20:52.023Z,49.32
2019-04-30T20:25:56.267Z,49.68
2019-04-30T20:31:00.311Z,49.37
2019-04-30T20:36:04.495Z,49.37
2019-04-30T20:41:09.519Z,49.56
2019-04-30T20:46:14.747Z,49.94
2019-04-30T20:51:19.683Z,50.02
2019-04-30T20:56:23.892Z,50.01
2019-04-30T21:01:29.422Z,50.34
2019-04-30T21:06:33.542Z,50.24
2019-04-30T21:11:38.567Z,50.24
2019-04-30T21:16:43.290Z,50.28
2019-04-30T21:21:49.235Z,50.08
2019-04-30T21:26:53.274Z,50.07
2019-04-30T21:32:21.357Z,50.31
2019-04-30T21:37:25.564Z,50.86
2019-04-30T21:42:29.760Z,50.86
2019-04-30T21:47:33.795Z,50.59
2019-04-30T21:52:38.345Z,51.14
2019-04-30T21:57:43.743Z,51.14
2019-04-30T22:02:50.048Z,50.94
2019-04-30T22:07:53.834Z,50.94
2019-04-30T22:12:58.612Z,51.33
2019-04-30T22:18:02.783Z,50.80
2019-04-30T22:23:06.950Z,51.18
2019-04-30T22:28:10.991Z,51.18
2019-04-30T22:33:15.115Z,51.17
2019-04-30T22:38:23.142Z,51.60
2019-04-30T22:43:27.291Z,51.57
2019-04-30T22:48:31.379Z,51.14
2019-04-30T22:53:35.484Z,51.39
2019-04-30T22:58:39.900Z,51.67
2019-04-30T23:03:44.191Z,51.67
2019-04-30T23:08:48.246Z,51.39
2019-04-30T23:13:52.643Z,51.86
2019-04-30T23:18:56.755Z,51.74
2019-04-30T23:24:00.811Z,51.62
2019-04-30T23:29:05.004Z,52.09
2019-04-30T23:34:17.821Z,52.04
2019-04-30T23:39:15.278Z,52.04
2019-04-30T23:49:22.200Z,52.46
2019-04-30T23:54:26.250Z,52.39
2019-04-30T23:59:30.556Z,52.36
